Time;durP1;ratioP1;P1;durP2;ratioP2;P2;SDS_P1;SDS_P2;PMS_P1;PMS_P2;Temp;Humidity;BMP_temperature;BMP_pressure;BME280_temperature;BME280_humidity;BME280_pressure;Samples;Min_cycle;Max_cycle;Signal;HPM_P1;HPM_P2
2022/01/02 00:00:02;;;;;;;;;12.00;10.50;;;;;;;;5024801;28;46547;-79
2022/01/02 00:02:28;;;;;;;;;14.50;11.50;;;;;;;;5028163;28;45359;-78
2022/01/02 00:04:58;;;;;;;;;10.50;10.50;;;;;;;;5024540;28;45534;-78
2022/01/02 00:07:26;;;;;;;;;14.75;11.75;;;;;;;;5029265;28;45530;-78
2022/01/02 00:09:52;;;;;;;;;13.25;12.75;;;;;;;;5031371;28;46737;-78
2022/01/02 00:12:18;;;;;;;;;14.00;12.50;;;;;;;;5028681;28;45592;-79
2022/01/02 00:14:44;;;;;;;;;14.00;12.25;;;;;;;;5035765;28;45518;-78
2022/01/02 00:17:10;;;;;;;;;12.75;12.50;;;;;;;;5021136;28;45517;-78
2022/01/02 00:19:39;;;;;;;;;13.50;11.00;;;;;;;;5028211;28;47467;-78
2022/01/02 00:22:13;;;;;;;;;8.75;8.75;;;;;;;;5013808;28;45948;-78
2022/01/02 00:24:40;;;;;;;;;18.75;15.00;;;;;;;;5028503;28;45478;-78
2022/01/02 00:27:07;;;;;;;;;12.50;12.50;;;;;;;;5028989;28;45478;-78
2022/01/02 00:29:35;;;;;;;;;12.00;12.00;;;;;;;;5026856;28;47774;-76
2022/01/02 00:32:01;;;;;;;;;16.25;13.50;;;;;;;;5029471;28;45540;-78
2022/01/02 00:34:26;;;;;;;;;12.50;10.50;;;;;;;;5029310;28;45472;-78
2022/01/02 00:36:51;;;;;;;;;13.25;12.50;;;;;;;;5012929;28;45395;-78
2022/01/02 00:39:17;;;;;;;;;12.25;11.75;;;;;;;;5028091;28;46095;-78
2022/01/02 00:41:53;;;;;;;;;13.25;13.25;;;;;;;;5017370;28;45761;-79
2022/01/02 00:44:18;;;;;;;;;13.25;10.00;;;;;;;;5022442;28;45549;-78
2022/01/02 00:46:57;;;;;;;;;14.00;13.00;;;;;;;;5029204;28;45525;-78
2022/01/02 00:49:26;;;;;;;;;13.75;12.75;;;;;;;;5028804;28;47474;-78
2022/01/02 00:52:12;;;;;;;;;12.00;10.75;;;;;;;;5012103;28;46055;-78
2022/01/02 00:54:44;;;;;;;;;12.50;11.25;;;;;;;;5028275;28;45635;-78
2022/01/02 00:57:13;;;;;;;;;18.00;13.00;;;;;;;;5028434;28;45412;-78
2022/01/02 00:59:45;;;;;;;;;13.25;10.75;;;;;;;;5025072;28;45757;-78
2022/01/02 01:02:14;;;;;;;;;11.50;11.25;;;;;;;;5030276;28;45933;-78
2022/01/02 01:04:41;;;;;;;;;10.25;10.25;;;;;;;;5033118;28;45657;-77
2022/01/02 01:07:07;;;;;;;;;14.00;11.00;;;;;;;;5028486;28;45689;-77
2022/01/02 01:09:32;;;;;;;;;12.67;12.67;;;;;;;;5032600;28;46171;-78
2022/01/02 01:11:59;;;;;;;;;10.50;10.50;;;;;;;;5029406;28;45670;-76
2022/01/02 01:14:24;;;;;;;;;9.25;9.25;;;;;;;;5027097;28;45448;-78
2022/01/02 01:16:50;;;;;;;;;14.50;11.50;;;;;;;;5025779;28;45463;-78
2022/01/02 01:19:15;;;;;;;;;9.75;8.50;;;;;;;;5038548;28;45933;-78
2022/01/02 01:21:40;;;;;;;;;8.67;8.00;;;;;;;;5031812;28;45564;-78
2022/01/02 01:24:05;;;;;;;;;11.33;11.00;;;;;;;;5031446;28;45838;-78
2022/01/02 01:26:31;;;;;;;;;14.00;12.33;;;;;;;;5034709;28;45475;-78
2022/01/02 01:28:56;;;;;;;;;13.50;12.75;;;;;;;;5030206;28;46262;-79
2022/01/02 01:31:21;;;;;;;;;13.75;11.75;;;;;;;;5031161;28;45840;-79
2022/01/02 01:33:47;;;;;;;;;12.33;11.33;;;;;;;;5031154;28;45560;-79
2022/01/02 01:36:12;;;;;;;;;13.33;10.33;;;;;;;;5035575;28;45478;-79
2022/01/02 01:38:37;;;;;;;;;12.67;11.67;;;;;;;;5030136;28;48029;-78
2022/01/02 01:41:23;;;;;;;;;16.00;11.00;;;;;;;;5033258;28;45452;-78
2022/01/02 01:44:04;;;;;;;;;13.75;11.25;;;;;;;;5031591;28;45702;-78
2022/01/02 01:46:29;;;;;;;;;14.00;12.50;;;;;;;;5031218;28;45561;-78
2022/01/02 01:48:55;;;;;;;;;12.00;12.00;;;;;;;;5033292;28;46335;-78
2022/01/02 01:51:21;;;;;;;;;14.50;13.25;;;;;;;;5032417;28;45561;-78
2022/01/02 01:53:47;;;;;;;;;13.25;11.50;;;;;;;;5030865;28;45760;-78
2022/01/02 01:56:12;;;;;;;;;12.67;11.33;;;;;;;;5030582;28;45662;-79
2022/01/02 01:58:37;;;;;;;;;14.50;11.00;;;;;;;;5030196;28;47212;-78
2022/01/02 02:01:02;;;;;;;;;17.33;12.67;;;;;;;;5031257;28;45617;-78
2022/01/02 02:03:28;;;;;;;;;14.00;14.00;;;;;;;;5032242;28;45666;-78
2022/01/02 02:05:53;;;;;;;;;13.33;10.33;;;;;;;;5033534;28;45605;-79
2022/01/02 02:08:20;;;;;;;;;11.00;11.00;;;;;;;;5029865;28;46461;-78
2022/01/02 02:10:54;;;;;;;;;12.50;9.50;;;;;;;;5031629;28;45926;-78
2022/01/02 02:13:19;;;;;;;;;14.75;11.75;;;;;;;;5026119;28;45399;-78
2022/01/02 02:15:44;;;;;;;;;9.75;9.75;;;;;;;;5027004;28;45537;-79
2022/01/02 02:18:10;;;;;;;;;10.33;8.33;;;;;;;;5022774;28;48104;-79
2022/01/02 02:20:36;;;;;;;;;13.67;12.00;;;;;;;;5024056;28;45368;-79
2022/01/02 02:23:02;;;;;;;;;12.50;11.50;;;;;;;;5026373;28;45470;-78
2022/01/02 02:25:31;;;;;;;;;12.25;12.25;;;;;;;;5019540;28;45380;-79
2022/01/02 02:27:58;;;;;;;;;14.00;13.00;;;;;;;;5015277;28;45638;-78
2022/01/02 02:30:24;;;;;;;;;13.00;12.00;;;;;;;;5019219;28;45468;-79
2022/01/02 02:32:50;;;;;;;;;12.25;12.00;;;;;;;;5020040;28;45394;-78
2022/01/02 02:35:16;;;;;;;;;15.25;11.25;;;;;;;;5025646;28;45741;-78
2022/01/02 02:37:42;;;;;;;;;12.00;9.00;;;;;;;;5027289;28;47053;-78
2022/01/02 02:40:11;;;;;;;;;12.50;12.50;;;;;;;;5015574;28;45394;-78
2022/01/02 02:50:58;;;;;;;;;14.00;12.00;;;;;;;;5030887;28;45454;-79
2022/01/02 02:53:23;;;;;;;;;11.75;11.75;;;;;;;;5032279;28;45688;-78
2022/01/02 02:55:55;;;;;;;;;14.00;14.00;;;;;;;;5033493;28;45411;-78
2022/01/02 03:00:58;;;;;;;;;13.75;12.00;;;;;;;;5042316;28;46000;-78
2022/01/02 03:03:23;;;;;;;;;13.75;12.75;;;;;;;;5032108;28;45609;-78
2022/01/02 03:05:48;;;;;;;;;13.67;12.33;;;;;;;;5020870;28;45477;-79
2022/01/02 03:08:13;;;;;;;;;12.33;12.00;;;;;;;;5024155;28;46468;-78
2022/01/02 03:10:39;;;;;;;;;11.67;11.33;;;;;;;;5028197;28;45700;-79
2022/01/02 03:13:04;;;;;;;;;11.00;11.00;;;;;;;;5013828;28;45413;-78
2022/01/02 03:15:29;;;;;;;;;12.33;12.00;;;;;;;;5032834;28;45474;-78
2022/01/02 03:17:54;;;;;;;;;15.00;11.33;;;;;;;;5029777;28;45473;-78
2022/01/02 03:20:20;;;;;;;;;13.00;12.00;;;;;;;;5027046;28;45757;-78
2022/01/02 03:22:45;;;;;;;;;13.33;10.00;;;;;;;;5018716;28;46058;-78
2022/01/02 03:25:13;;;;;;;;;14.00;12.67;;;;;;;;5029610;28;45447;-79
2022/01/02 03:27:39;;;;;;;;;14.00;12.00;;;;;;;;5030097;28;46574;-79
2022/01/02 03:30:05;;;;;;;;;14.75;11.25;;;;;;;;5032123;28;45541;-77
2022/01/02 03:32:30;;;;;;;;;11.75;11.75;;;;;;;;5031202;28;45440;-79
2022/01/02 03:34:55;;;;;;;;;15.33;13.00;;;;;;;;5025626;28;45593;-76
2022/01/02 03:37:21;;;;;;;;;15.00;13.00;;;;;;;;5027076;28;46214;-78
2022/01/02 03:39:46;;;;;;;;;15.50;14.50;;;;;;;;5014361;28;45352;-79
2022/01/02 03:42:11;;;;;;;;;9.00;9.00;;;;;;;;5018141;28;47758;-78
2022/01/02 03:44:37;;;;;;;;;12.00;11.75;;;;;;;;5018748;28;45517;-78
2022/01/02 03:47:02;;;;;;;;;11.67;11.67;;;;;;;;5018062;28;45806;-76
2022/01/02 03:49:27;;;;;;;;;11.75;11.75;;;;;;;;5026503;28;45569;-79
2022/01/02 03:51:52;;;;;;;;;16.67;12.00;;;;;;;;5014355;28;45394;-76
2022/01/02 03:54:18;;;;;;;;;14.00;12.33;;;;;;;;5018093;28;45454;-79
2022/01/02 03:56:44;;;;;;;;;15.67;13.33;;;;;;;;5017638;28;45565;-79
2022/01/02 03:59:11;;;;;;;;;14.25;13.25;;;;;;;;5017999;28;45422;-79
2022/01/02 04:01:36;;;;;;;;;10.75;10.50;;;;;;;;5017051;28;45546;-79
2022/01/02 04:04:01;;;;;;;;;12.50;10.25;;;;;;;;5030669;28;45572;-78
2022/01/02 04:06:27;;;;;;;;;14.00;11.00;;;;;;;;5037134;28;46982;-79
2022/01/02 04:08:52;;;;;;;;;13.00;11.00;;;;;;;;5018717;28;45575;-78
2022/01/02 04:11:17;;;;;;;;;13.00;11.67;;;;;;;;5021334;28;45456;-78
2022/01/02 04:13:42;;;;;;;;;16.00;12.67;;;;;;;;5016391;28;45581;-78
2022/01/02 04:16:07;;;;;;;;;14.67;13.67;;;;;;;;5018147;28;46138;-79
2022/01/02 04:18:33;;;;;;;;;8.33;8.00;;;;;;;;5034476;28;45526;-79
2022/01/02 04:20:58;;;;;;;;;11.67;10.67;;;;;;;;5029168;28;45621;-78
2022/01/02 04:23:23;;;;;;;;;10.33;10.33;;;;;;;;5027116;28;48494;-78
2022/01/02 04:25:48;;;;;;;;;11.00;11.00;;;;;;;;5024276;28;46999;-78
2022/01/02 04:28:14;;;;;;;;;14.00;12.00;;;;;;;;5015554;28;45564;-78
2022/01/02 04:30:39;;;;;;;;;10.00;10.00;;;;;;;;5015537;28;45413;-79
2022/01/02 04:33:04;;;;;;;;;11.67;11.67;;;;;;;;5032073;28;45647;-78
2022/01/02 04:35:29;;;;;;;;;13.00;11.67;;;;;;;;5024652;28;45559;-78
2022/01/02 04:37:54;;;;;;;;;12.67;11.00;;;;;;;;5024862;28;45607;-78
2022/01/02 04:40:20;;;;;;;;;13.00;11.33;;;;;;;;5025146;28;45530;-78
2022/01/02 04:42:45;;;;;;;;;11.00;11.00;;;;;;;;5030320;28;45457;-78
2022/01/02 04:45:10;;;;;;;;;13.33;12.00;;;;;;;;5031424;28;45492;-78
2022/01/02 04:47:35;;;;;;;;;11.33;9.00;;;;;;;;5027764;28;45399;-78
2022/01/02 04:50:01;;;;;;;;;13.33;11.00;;;;;;;;5024209;28;45628;-78
2022/01/02 04:52:26;;;;;;;;;13.67;11.00;;;;;;;;5015778;28;46228;-78
2022/01/02 04:54:51;;;;;;;;;11.00;11.00;;;;;;;;5029144;28;46526;-78
2022/01/02 04:57:16;;;;;;;;;10.00;10.00;;;;;;;;5017395;28;45387;-78
2022/01/02 04:59:41;;;;;;;;;12.33;11.00;;;;;;;;5017289;28;45608;-78
2022/01/02 05:02:07;;;;;;;;;11.00;11.00;;;;;;;;5020526;28;45574;-78
2022/01/02 05:04:32;;;;;;;;;10.67;10.67;;;;;;;;5032494;28;45926;-78
2022/01/02 05:06:57;;;;;;;;;12.25;10.00;;;;;;;;5025029;28;45404;-78
2022/01/02 05:09:22;;;;;;;;;14.67;11.00;;;;;;;;5016185;28;45372;-78
2022/01/02 05:11:48;;;;;;;;;9.33;9.33;;;;;;;;5017027;28;45693;-79
2022/01/02 05:14:13;;;;;;;;;12.67;10.67;;;;;;;;5015196;28;46430;-78
2022/01/02 05:16:38;;;;;;;;;9.00;9.00;;;;;;;;5027621;28;45676;-78
2022/01/02 05:19:03;;;;;;;;;10.00;9.00;;;;;;;;5030010;28;45880;-78
2022/01/02 05:21:29;;;;;;;;;12.67;10.67;;;;;;;;5016284;28;45727;-78
2022/01/02 05:23:54;;;;;;;;;12.00;10.67;;;;;;;;5029952;28;46183;-78
2022/01/02 05:26:19;;;;;;;;;10.00;9.00;;;;;;;;5026242;28;45456;-78
2022/01/02 05:28:44;;;;;;;;;9.67;9.00;;;;;;;;5025720;28;45536;-78
2022/01/02 05:31:09;;;;;;;;;11.33;9.33;;;;;;;;5029713;28;45539;-78
2022/01/02 05:33:35;;;;;;;;;10.00;10.00;;;;;;;;5030605;28;45580;-78
2022/01/02 05:36:00;;;;;;;;;10.00;8.67;;;;;;;;5024722;28;45734;-77
2022/01/02 05:38:25;;;;;;;;;10.00;8.33;;;;;;;;5031112;28;45548;-78
2022/01/02 05:40:52;;;;;;;;;9.25;9.25;;;;;;;;5024867;28;48510;-78
2022/01/02 05:43:18;;;;;;;;;10.50;9.00;;;;;;;;5021099;28;45681;-78
2022/01/02 05:45:43;;;;;;;;;12.33;10.00;;;;;;;;5041468;28;45598;-78
2022/01/02 05:48:08;;;;;;;;;9.00;9.00;;;;;;;;5031120;28;45719;-78
2022/01/02 05:50:34;;;;;;;;;12.75;9.00;;;;;;;;5028006;28;45468;-77
2022/01/02 05:52:59;;;;;;;;;9.67;9.67;;;;;;;;5028611;28;45606;-78
2022/01/02 05:55:24;;;;;;;;;11.67;11.67;;;;;;;;5033470;28;45384;-77
2022/01/02 05:57:49;;;;;;;;;7.33;7.33;;;;;;;;5018102;28;45364;-78
2022/01/02 06:00:15;;;;;;;;;10.33;10.00;;;;;;;;5028661;28;45387;-78
2022/01/02 06:02:40;;;;;;;;;15.00;11.67;;;;;;;;5025500;28;45292;-77
2022/01/02 06:05:06;;;;;;;;;11.00;11.00;;;;;;;;5026483;28;45542;-77
2022/01/02 06:07:32;;;;;;;;;12.00;12.00;;;;;;;;5016609;28;45431;-78
2022/01/02 06:09:57;;;;;;;;;13.25;10.00;;;;;;;;5030876;28;45827;-78
2022/01/02 06:12:23;;;;;;;;;11.00;10.00;;;;;;;;5020206;28;45407;-77
2022/01/02 06:14:48;;;;;;;;;13.25;9.75;;;;;;;;5040203;28;45420;-78
2022/01/02 06:17:13;;;;;;;;;10.75;9.00;;;;;;;;5031368;28;45744;-78
2022/01/02 06:19:39;;;;;;;;;8.00;8.00;;;;;;;;5018017;28;45415;-77
2022/01/02 06:22:04;;;;;;;;;7.00;7.00;;;;;;;;5030549;28;45696;-77
2022/01/02 06:24:29;;;;;;;;;10.00;9.00;;;;;;;;5017078;28;45718;-78
2022/01/02 06:26:54;;;;;;;;;8.67;8.67;;;;;;;;5030155;28;45367;-78
2022/01/02 06:29:19;;;;;;;;;8.33;8.33;;;;;;;;5028514;28;45721;-77
2022/01/02 06:31:45;;;;;;;;;11.00;8.00;;;;;;;;5031341;28;47087;-78
2022/01/02 06:34:10;;;;;;;;;11.00;10.00;;;;;;;;5033395;28;45581;-78
2022/01/02 06:36:35;;;;;;;;;10.00;10.00;;;;;;;;5016939;28;45529;-77
2022/01/02 06:39:00;;;;;;;;;11.33;10.33;;;;;;;;5035655;28;45425;-78
2022/01/02 06:41:26;;;;;;;;;9.33;9.33;;;;;;;;5024342;28;48075;-78
2022/01/02 06:43:52;;;;;;;;;10.33;10.00;;;;;;;;5019129;28;51723;-77
2022/01/02 06:46:21;;;;;;;;;11.50;10.25;;;;;;;;5017543;28;45676;-77
2022/01/02 06:48:46;;;;;;;;;13.25;9.00;;;;;;;;5026306;28;50273;-77
2022/01/02 06:51:11;;;;;;;;;10.50;9.75;;;;;;;;5031865;28;47246;-77
2022/01/02 06:53:37;;;;;;;;;11.67;10.00;;;;;;;;5026177;28;46248;-78
2022/01/02 06:56:03;;;;;;;;;10.33;9.33;;;;;;;;5026014;28;45434;-78
2022/01/02 06:58:28;;;;;;;;;11.00;9.25;;;;;;;;5018239;28;45407;-78
2022/01/02 07:00:53;;;;;;;;;9.33;9.33;;;;;;;;5023516;28;46241;-77
2022/01/02 07:03:18;;;;;;;;;12.00;11.00;;;;;;;;5029737;28;45431;-77
2022/01/02 07:05:44;;;;;;;;;10.00;9.33;;;;;;;;5019006;28;45486;-78
2022/01/02 07:08:09;;;;;;;;;9.25;9.25;;;;;;;;5019185;28;45448;-78
2022/01/02 07:10:34;;;;;;;;;12.33;9.67;;;;;;;;5019439;28;46118;-77
2022/01/02 07:13:00;;;;;;;;;11.00;11.00;;;;;;;;5037904;28;45668;-77
2022/01/02 07:15:25;;;;;;;;;12.00;12.00;;;;;;;;5034340;28;45768;-78
2022/01/02 07:17:50;;;;;;;;;11.75;9.50;;;;;;;;5027386;28;45426;-77
2022/01/02 07:20:15;;;;;;;;;9.00;8.00;;;;;;;;5029835;28;45602;-77
2022/01/02 07:22:42;;;;;;;;;13.00;9.33;;;;;;;;5028759;28;45784;-77
2022/01/02 07:25:08;;;;;;;;;10.00;8.00;;;;;;;;5016235;28;45580;-78
2022/01/02 07:27:33;;;;;;;;;14.25;10.75;;;;;;;;5030228;28;45509;-77
2022/01/02 07:29:59;;;;;;;;;7.67;7.67;;;;;;;;5029543;28;47430;-77
2022/01/02 07:32:24;;;;;;;;;12.25;10.00;;;;;;;;5029158;28;45625;-77
2022/01/02 07:34:50;;;;;;;;;9.50;9.50;;;;;;;;5026186;28;45572;-77
2022/01/02 07:37:15;;;;;;;;;11.33;10.67;;;;;;;;5027147;28;45487;-78
2022/01/02 07:39:40;;;;;;;;;13.00;10.67;;;;;;;;5034619;28;45614;-77
2022/01/02 07:42:05;;;;;;;;;13.33;11.67;;;;;;;;5031223;28;45490;-78
2022/01/02 07:44:31;;;;;;;;;9.50;9.50;;;;;;;;5027206;28;45627;-77
2022/01/02 07:46:56;;;;;;;;;13.00;10.00;;;;;;;;5032566;28;45453;-76
2022/01/02 07:49:21;;;;;;;;;13.67;10.67;;;;;;;;5042238;28;45520;-76
2022/01/02 07:51:47;;;;;;;;;11.67;11.00;;;;;;;;5030312;28;45549;-77
2022/01/02 07:54:13;;;;;;;;;11.75;9.75;;;;;;;;5032931;28;48024;-78
2022/01/02 07:56:38;;;;;;;;;13.75;12.75;;;;;;;;5028944;28;45682;-78
2022/01/02 07:59:03;;;;;;;;;11.75;9.75;;;;;;;;5026814;28;46543;-78
2022/01/02 08:01:29;;;;;;;;;11.00;11.00;;;;;;;;5023811;28;45781;-77
2022/01/02 08:03:54;;;;;;;;;16.00;11.00;;;;;;;;5017437;28;45453;-78
2022/01/02 08:06:19;;;;;;;;;10.00;10.00;;;;;;;;5029379;28;45440;-78
2022/01/02 08:08:45;;;;;;;;;14.00;11.67;;;;;;;;5018822;28;46077;-78
2022/01/02 08:11:10;;;;;;;;;12.25;9.25;;;;;;;;5027157;28;45430;-78
2022/01/02 08:13:35;;;;;;;;;12.25;11.50;;;;;;;;5030125;28;45566;-78
2022/01/02 08:16:01;;;;;;;;;12.33;10.00;;;;;;;;5027345;28;45509;-78
2022/01/02 08:18:26;;;;;;;;;14.67;11.67;;;;;;;;5015832;28;48110;-78
2022/01/02 08:20:51;;;;;;;;;12.00;10.00;;;;;;;;5025516;28;45462;-78
2022/01/02 08:23:16;;;;;;;;;12.67;11.00;;;;;;;;5033801;28;45487;-78
2022/01/02 08:25:42;;;;;;;;;12.33;11.00;;;;;;;;5038154;28;45527;-78
2022/01/02 08:28:07;;;;;;;;;11.50;11.50;;;;;;;;5028086;28;45923;-77
2022/01/02 08:30:33;;;;;;;;;9.75;9.75;;;;;;;;5032927;28;45536;-78
2022/01/02 08:32:58;;;;;;;;;14.50;12.00;;;;;;;;5031316;28;45574;-78
2022/01/02 08:35:23;;;;;;;;;14.00;11.00;;;;;;;;5024739;28;45577;-78
2022/01/02 08:37:48;;;;;;;;;12.25;11.00;;;;;;;;5017282;28;45604;-75
2022/01/02 08:40:14;;;;;;;;;13.00;11.00;;;;;;;;5028802;28;45521;-78
2022/01/02 08:42:39;;;;;;;;;14.00;11.33;;;;;;;;5028545;28;45413;-78
2022/01/02 08:45:05;;;;;;;;;13.25;13.00;;;;;;;;5025622;28;45903;-77
2022/01/02 08:47:30;;;;;;;;;13.00;10.50;;;;;;;;5023612;28;47398;-77
2022/01/02 08:49:55;;;;;;;;;11.50;11.00;;;;;;;;5022437;28;45755;-78
2022/01/02 08:52:21;;;;;;;;;11.25;9.25;;;;;;;;5029064;28;45487;-78
2022/01/02 08:54:47;;;;;;;;;11.75;10.00;;;;;;;;5014434;28;45660;-78
2022/01/02 08:57:12;;;;;;;;;12.00;12.00;;;;;;;;5032174;28;45564;-78
2022/01/02 08:59:37;;;;;;;;;13.00;11.67;;;;;;;;5025115;28;46198;-77
2022/01/02 09:02:02;;;;;;;;;12.33;9.00;;;;;;;;5026158;28;45729;-76
2022/01/02 09:04:28;;;;;;;;;12.00;10.25;;;;;;;;5027895;28;45400;-78
2022/01/02 09:06:53;;;;;;;;;13.67;10.33;;;;;;;;5029716;28;45555;-77
2022/01/02 09:09:19;;;;;;;;;11.00;10.00;;;;;;;;5023796;28;45743;-78
2022/01/02 09:11:44;;;;;;;;;11.75;10.25;;;;;;;;5023610;28;45674;-77
2022/01/02 09:14:09;;;;;;;;;15.67;11.33;;;;;;;;5017185;28;45411;-78
2022/01/02 09:16:35;;;;;;;;;9.67;9.33;;;;;;;;5024145;28;45521;-78
2022/01/02 09:19:00;;;;;;;;;11.25;11.00;;;;;;;;5013125;28;45597;-78
2022/01/02 09:21:26;;;;;;;;;10.33;9.00;;;;;;;;5033061;28;45435;-78
2022/01/02 09:23:51;;;;;;;;;11.33;10.33;;;;;;;;5017465;28;45720;-78
2022/01/02 09:26:16;;;;;;;;;11.67;9.67;;;;;;;;5019040;28;46353;-76
2022/01/02 09:28:41;;;;;;;;;10.33;9.33;;;;;;;;5016867;28;45398;-78
2022/01/02 09:31:08;;;;;;;;;12.00;9.00;;;;;;;;5040625;28;45440;-78
2022/01/02 09:33:33;;;;;;;;;10.75;9.75;;;;;;;;5013283;28;45400;-78
2022/01/02 09:35:58;;;;;;;;;8.00;8.00;;;;;;;;5027973;28;45659;-78
2022/01/02 09:38:24;;;;;;;;;10.00;8.33;;;;;;;;5022524;28;45452;-78
2022/01/02 09:40:49;;;;;;;;;12.00;9.00;;;;;;;;5023713;28;45475;-77
2022/01/02 09:43:15;;;;;;;;;10.00;7.25;;;;;;;;5031648;28;45599;-78
2022/01/02 09:45:44;;;;;;;;;12.50;9.00;;;;;;;;5028425;28;45480;-78
2022/01/02 09:48:09;;;;;;;;;9.00;8.75;;;;;;;;5034403;28;45529;-78
2022/01/02 09:50:35;;;;;;;;;10.50;8.00;;;;;;;;5034735;28;45522;-78
2022/01/02 09:53:00;;;;;;;;;8.50;8.50;;;;;;;;5034433;28;45438;-78
2022/01/02 09:55:26;;;;;;;;;9.00;9.00;;;;;;;;5019872;28;46492;-78
2022/01/02 09:57:53;;;;;;;;;7.25;7.00;;;;;;;;5032346;28;45850;-80
2022/01/02 10:00:20;;;;;;;;;8.00;7.75;;;;;;;;5030987;28;45597;-78
2022/01/02 10:02:55;;;;;;;;;7.00;4.25;;;;;;;;5023671;28;45557;-77
2022/01/02 10:05:23;;;;;;;;;8.75;6.00;;;;;;;;5027200;28;46485;-79
2022/01/02 10:07:49;;;;;;;;;11.00;6.25;;;;;;;;5027517;28;45954;-77
2022/01/02 10:10:14;;;;;;;;;7.00;5.67;;;;;;;;5033455;28;45709;-77
2022/01/02 10:12:39;;;;;;;;;7.50;6.00;;;;;;;;5017776;28;45534;-76
2022/01/02 10:15:14;;;;;;;;;6.50;5.00;;;;;;;;5030900;28;45607;-78
2022/01/02 10:17:59;;;;;;;;;7.75;6.00;;;;;;;;5024936;28;45645;-78
2022/01/02 10:20:40;;;;;;;;;4.00;4.00;;;;;;;;5032858;28;45909;-80
2022/01/02 10:23:05;;;;;;;;;4.00;4.00;;;;;;;;5025021;28;48486;-78
2022/01/02 10:25:46;;;;;;;;;4.00;4.00;;;;;;;;5029921;28;46108;-79
2022/01/02 10:28:27;;;;;;;;;5.25;3.00;;;;;;;;5033857;28;46174;-80
2022/01/02 10:30:54;;;;;;;;;3.00;2.50;;;;;;;;5025201;28;45771;-79
2022/01/02 10:33:19;;;;;;;;;4.25;3.50;;;;;;;;5033436;28;45549;-78
2022/01/02 10:35:44;;;;;;;;;3.00;2.00;;;;;;;;5030126;28;45824;-79
2022/01/02 10:38:16;;;;;;;;;4.00;2.00;;;;;;;;5024370;28;45505;-78
2022/01/02 10:40:42;;;;;;;;;1.00;1.00;;;;;;;;5030799;28;46036;-79
2022/01/02 10:43:24;;;;;;;;;4.00;3.00;;;;;;;;5030023;28;48131;-79
2022/01/02 10:45:53;;;;;;;;;1.75;1.75;;;;;;;;5023635;28;45710;-78
2022/01/02 10:48:37;;;;;;;;;4.00;3.00;;;;;;;;5032165;28;45866;-81
2022/01/02 10:51:07;;;;;;;;;5.00;2.50;;;;;;;;5030267;28;45620;-78
2022/01/02 10:53:34;;;;;;;;;3.75;3.00;;;;;;;;5029296;28;45581;-79
2022/01/02 10:55:59;;;;;;;;;4.25;2.00;;;;;;;;5025165;28;46536;-78
2022/01/02 10:58:26;;;;;;;;;3.50;3.00;;;;;;;;5027101;28;45664;-79
2022/01/02 11:00:51;;;;;;;;;3.00;2.25;;;;;;;;5027034;28;45569;-79
2022/01/02 11:03:22;;;;;;;;;3.25;2.00;;;;;;;;5022344;28;45417;-78
2022/01/02 11:05:48;;;;;;;;;4.50;2.00;;;;;;;;5029498;28;46867;-78
2022/01/02 11:08:15;;;;;;;;;5.75;3.00;;;;;;;;5026192;28;45986;-78
2022/01/02 11:10:41;;;;;;;;;3.50;2.75;;;;;;;;5027274;28;45506;-78
2022/01/02 11:13:06;;;;;;;;;7.25;2.00;;;;;;;;5028045;28;45681;-78
2022/01/02 11:15:32;;;;;;;;;4.67;3.00;;;;;;;;5025182;28;50572;-76
2022/01/02 11:17:57;;;;;;;;;2.75;1.00;;;;;;;;5030528;28;45541;-77
2022/01/02 11:20:24;;;;;;;;;7.00;3.50;;;;;;;;5023687;28;45398;-78
2022/01/02 11:22:57;;;;;;;;;3.00;3.00;;;;;;;;5030660;28;45727;-78
2022/01/02 11:25:41;;;;;;;;;2.25;2.25;;;;;;;;5030985;28;47708;-77
2022/01/02 11:28:10;;;;;;;;;2.00;2.00;;;;;;;;5025022;28;46092;-78
2022/01/02 11:30:37;;;;;;;;;2.00;2.00;;;;;;;;5033800;28;45474;-78
2022/01/02 11:33:07;;;;;;;;;2.00;1.00;;;;;;;;5030785;28;45629;-78
2022/01/02 11:35:35;;;;;;;;;4.50;3.00;;;;;;;;5020394;28;46506;-77
2022/01/02 11:38:02;;;;;;;;;5.00;3.25;;;;;;;;5032053;28;45761;-78
2022/01/02 11:40:42;;;;;;;;;2.00;2.00;;;;;;;;5034560;28;45452;-78
2022/01/02 11:43:07;;;;;;;;;3.00;2.75;;;;;;;;5039007;28;45435;-78
2022/01/02 11:45:42;;;;;;;;;5.00;2.50;;;;;;;;5029402;28;45519;-77
2022/01/02 11:48:27;;;;;;;;;4.00;2.50;;;;;;;;5039965;28;45690;-79
2022/01/02 11:50:52;;;;;;;;;5.50;3.00;;;;;;;;5041603;28;45502;-78
2022/01/02 11:53:23;;;;;;;;;3.75;3.75;;;;;;;;5029112;28;45618;-78
2022/01/02 11:55:49;;;;;;;;;4.75;3.25;;;;;;;;5030481;28;45546;-79
2022/01/02 11:58:34;;;;;;;;;6.75;3.75;;;;;;;;5028831;28;46363;-79
2022/01/02 12:01:00;;;;;;;;;6.00;3.50;;;;;;;;5017943;28;45692;-78
2022/01/02 12:03:40;;;;;;;;;5.00;5.00;;;;;;;;5040105;28;45633;-79
2022/01/02 12:06:22;;;;;;;;;5.00;2.25;;;;;;;;5039999;28;45740;-77
2022/01/02 12:08:49;;;;;;;;;3.50;3.50;;;;;;;;5029975;28;45797;-80
2022/01/02 12:11:29;;;;;;;;;5.25;3.25;;;;;;;;5030512;28;45526;-79
2022/01/02 12:14:10;;;;;;;;;9.50;4.50;;;;;;;;5022428;28;45590;-79
2022/01/02 12:16:36;;;;;;;;;6.25;4.50;;;;;;;;5031463;28;45597;-79
2022/01/02 12:19:06;;;;;;;;;7.75;4.00;;;;;;;;5033385;28;45811;-79
2022/01/02 12:21:32;;;;;;;;;5.75;3.00;;;;;;;;5031689;28;45462;-79
2022/01/02 12:23:58;;;;;;;;;4.50;4.00;;;;;;;;5030430;28;45317;-80
2022/01/02 12:26:28;;;;;;;;;4.75;4.00;;;;;;;;5028148;28;45476;-79
2022/01/02 12:28:58;;;;;;;;;3.50;3.25;;;;;;;;5024922;28;45403;-80
2022/01/02 12:31:29;;;;;;;;;2.00;2.00;;;;;;;;5024000;28;45617;-80
2022/01/02 12:34:01;;;;;;;;;3.00;3.00;;;;;;;;5032604;28;45819;-81
2022/01/02 12:36:26;;;;;;;;;4.00;3.50;;;;;;;;5028879;28;45411;-79
2022/01/02 12:38:52;;;;;;;;;2.33;2.33;;;;;;;;5025154;28;45767;-79
2022/01/02 12:41:18;;;;;;;;;6.33;3.00;;;;;;;;5021652;28;45463;-79
2022/01/02 12:43:57;;;;;;;;;4.00;2.25;;;;;;;;5020452;28;45751;-79
2022/01/02 12:46:49;;;;;;;;;2.75;2.75;;;;;;;;5028735;28;45521;-77
2022/01/02 12:49:16;;;;;;;;;4.00;2.25;;;;;;;;5023901;28;45784;-79
2022/01/02 12:51:42;;;;;;;;;8.00;2.25;;;;;;;;5029292;28;45699;-80
2022/01/02 12:54:09;;;;;;;;;4.50;2.75;;;;;;;;5027478;28;45743;-79
2022/01/02 12:56:36;;;;;;;;;3.00;2.00;;;;;;;;5029844;28;45910;-77
2022/01/02 12:59:23;;;;;;;;;3.75;3.50;;;;;;;;5029801;28;45641;-80
2022/01/02 13:01:49;;;;;;;;;3.75;2.75;;;;;;;;5027161;28;45360;-79
2022/01/02 13:04:15;;;;;;;;;4.50;2.75;;;;;;;;5029098;28;45441;-79
2022/01/02 13:06:43;;;;;;;;;6.25;2.50;;;;;;;;5028717;28;47139;-79
2022/01/02 13:09:08;;;;;;;;;3.75;2.75;;;;;;;;5030350;28;45755;-79
2022/01/02 13:11:34;;;;;;;;;4.00;2.33;;;;;;;;5026001;28;45514;-79
2022/01/02 13:13:59;;;;;;;;;6.75;3.25;;;;;;;;5028325;28;45969;-79
2022/01/02 13:16:24;;;;;;;;;5.67;3.33;;;;;;;;5027654;28;48197;-80
2022/01/02 13:18:50;;;;;;;;;6.75;3.00;;;;;;;;5026735;28;45446;-80
2022/01/02 13:21:16;;;;;;;;;5.25;2.00;;;;;;;;5032462;28;45637;-80
2022/01/02 13:23:41;;;;;;;;;4.25;3.00;;;;;;;;5028171;28;45634;-80
2022/01/02 13:26:19;;;;;;;;;4.00;1.67;;;;;;;;5029220;28;45565;-78
2022/01/02 13:28:45;;;;;;;;;2.25;2.00;;;;;;;;5021572;28;45883;-78
2022/01/02 13:31:10;;;;;;;;;2.25;1.75;;;;;;;;5028846;28;45396;-78
2022/01/02 13:33:39;;;;;;;;;3.00;2.00;;;;;;;;5028666;28;45493;-79
2022/01/02 13:36:09;;;;;;;;;2.00;1.00;;;;;;;;5030771;28;45744;-78
2022/01/02 13:38:49;;;;;;;;;5.25;2.25;;;;;;;;5027381;28;45446;-79
2022/01/02 13:41:15;;;;;;;;;2.75;1.50;;;;;;;;5027790;28;45578;-79
2022/01/02 13:43:40;;;;;;;;;4.00;1.00;;;;;;;;5029139;28;45467;-79
2022/01/02 13:46:05;;;;;;;;;3.67;1.33;;;;;;;;5026703;28;45713;-78
2022/01/02 13:48:30;;;;;;;;;1.00;1.00;;;;;;;;5030911;28;45889;-78
2022/01/02 13:50:58;;;;;;;;;1.00;1.00;;;;;;;;5028330;28;44829;-78
2022/01/02 13:53:25;;;;;;;;;2.75;1.75;;;;;;;;5028410;28;45761;-78
2022/01/02 13:55:52;;;;;;;;;2.75;2.00;;;;;;;;5029835;28;45561;-78
2022/01/02 13:58:22;;;;;;;;;2.00;1.00;;;;;;;;5028995;28;51329;-79
2022/01/02 14:00:58;;;;;;;;;3.25;1.50;;;;;;;;5026718;28;45864;-79
2022/01/02 14:03:28;;;;;;;;;1.00;1.00;;;;;;;;5046382;28;46045;-79
2022/01/02 14:05:54;;;;;;;;;1.00;1.00;;;;;;;;5027853;28;45510;-79
2022/01/02 14:08:19;;;;;;;;;0.75;0.75;;;;;;;;5023778;28;45631;-81
2022/01/02 14:10:45;;;;;;;;;1.00;0.25;;;;;;;;5029196;28;45708;-81
2022/01/02 14:13:13;;;;;;;;;2.00;0.00;;;;;;;;5028140;28;45625;-81
2022/01/02 14:15:39;;;;;;;;;2.50;1.00;;;;;;;;5026330;28;46853;-81
2022/01/02 14:18:05;;;;;;;;;3.75;0.00;;;;;;;;5027344;28;45687;-81
2022/01/02 14:20:35;;;;;;;;;1.00;1.00;;;;;;;;5026378;28;45500;-81
2022/01/02 14:23:01;;;;;;;;;1.50;0.50;;;;;;;;5026678;28;45482;-81
2022/01/02 14:25:27;;;;;;;;;1.75;0.00;;;;;;;;5030289;28;51531;-81
2022/01/02 14:27:53;;;;;;;;;2.00;0.25;;;;;;;;5031298;28;45471;-81
2022/01/02 14:30:20;;;;;;;;;0.00;0.00;;;;;;;;5029607;28;45828;-81
2022/01/02 14:32:45;;;;;;;;;2.50;1.00;;;;;;;;5031203;28;45569;-81
2022/01/02 14:35:11;;;;;;;;;1.75;1.00;;;;;;;;5031325;28;46338;-81
2022/01/02 14:37:37;;;;;;;;;1.75;1.00;;;;;;;;5031114;28;45936;-81